This is the latest recevied weather packets stored in our database for station/object KE6LRO. If no packets are shown the sender has not sent any weather packets the latest 10 day(s).
| Time | Temp. | Humidity | Pressure | Rain* | Wind** | Luminosity | Snow |
|---|---|---|---|---|---|---|---|
| 1777746983 | 21.11° C | 30% | 1021.4 hPa | 0 mm | - | 726 W/m² | - |
| 1777746680 | 20.56° C | 32% | 1021.7 hPa | 0 mm | - | 743 W/m² | - |
| 1777746375 | 20° C | 34% | 1021.6 hPa | 0 mm | - | 704 W/m² | - |
| 1777746071 | 20° C | 35% | 1021.8 hPa | 0 mm | - | 674 W/m² | - |
| 1777745769 | 19.44° C | 39% | 1021.8 hPa | 0 mm | - | 697 W/m² | - |
| 1777745468 | 18.89° C | 40% | 1021.8 hPa | 0 mm | - | 662 W/m² | - |
| 1777745164 | 18.89° C | 38% | 1022.1 hPa | 0 mm | - | 714 W/m² | - |
| 1777744856 | 18.89° C | 39% | 1022.1 hPa | 0 mm | - | 690 W/m² | - |
| 1777744555 | 17.78° C | 40% | 1022.2 hPa | 0 mm | - | 715 W/m² | - |
| 1777744251 | 18.33° C | 39% | 1022.4 hPa | 0 mm | - | 686 W/m² | - |
| 1777743949 | 17.78° C | 38% | 1022.3 hPa | 0 mm | - | 725 W/m² | - |
| 1777743645 | 16.67° C | 42% | 1022.3 hPa | 0 mm | - | 638 W/m² | - |
| 1777743342 | 16.67° C | 41% | 1022.4 hPa | 0 mm | - | 495 W/m² | - |
| 1777743040 | 16.67° C | 41% | 1022.2 hPa | 0 mm | - | 691 W/m² | - |
| 1777742737 | 17.78° C | 38% | 1022.5 hPa | 0 mm | - | 611 W/m² | - |
| 1777742433 | 17.22° C | 41% | 1022.4 hPa | 0 mm | - | 574 W/m² | - |
| 1777742129 | 16.67° C | 40% | 1022.6 hPa | 0 mm | - | 590 W/m² | - |
| 1777741821 | 16.67° C | 42% | 1022.5 hPa | 0 mm | - | 626 W/m² | - |
| 1777741517 | 16.67° C | 41% | 1022.5 hPa | 0 mm | - | 640 W/m² | - |
| 1777741209 | 16.11° C | 44% | 1022.4 hPa | 0 mm | - | 557 W/m² | - |
| 1777740906 | 15.56° C | 43% | 1022.7 hPa | 0 mm | - | 457 W/m² | - |
| 1777740603 | 16.11° C | 45% | 1022.4 hPa | 0 mm | - | 503 W/m² | - |
| 1777740299 | 15.56° C | 45% | 1022.6 hPa | 0 mm | - | 534 W/m² | - |
| 1777739996 | 15° C | 44% | 1022.8 hPa | 0 mm | - | 464 W/m² | - |
| 1777739691 | 15° C | 46% | 1022.7 hPa | 0 mm | - | 484 W/m² | - |
* Rain latest hour (hover to see other rain measurements)
** Current wind speed in m/s (hover to see current wind gust speed)